Time;durP1;ratioP1;P1;durP2;ratioP2;P2;SDS_P1;SDS_P2;PMS_P1;PMS_P2;Temp;Humidity;BMP_temperature;BMP_pressure;BME280_temperature;BME280_humidity;BME280_pressure;Samples;Min_cycle;Max_cycle;Signal;HPM_P1;HPM_P2
2023/06/14 00:01:53;;;;;;;13.13;7.88;;;11.30;99.90;;;;;;5012606;28;20030;-85
2023/06/14 00:04:20;;;;;;;14.70;8.68;;;11.30;99.90;;;;;;5012373;28;20022;-85
2023/06/14 00:06:46;;;;;;;12.93;8.35;;;11.30;99.90;;;;;;5015607;28;20113;-81
2023/06/14 00:09:17;;;;;;;13.13;8.63;;;11.30;99.90;;;;;;5013834;28;20494;-84
2023/06/14 00:11:43;;;;;;;14.70;9.13;;;11.40;99.90;;;;;;5012466;28;20089;-81
2023/06/14 00:14:09;;;;;;;11.75;8.50;;;11.40;99.90;;;;;;5013518;28;20078;-84
2023/06/14 00:16:35;;;;;;;12.45;8.85;;;11.40;99.90;;;;;;5012329;28;20069;-82
2023/06/14 00:19:03;;;;;;;14.25;8.88;;;11.40;99.90;;;;;;5019589;28;20041;-81
2023/06/14 00:21:29;;;;;;;16.02;9.88;;;11.40;99.90;;;;;;5033172;28;20029;-81
2023/06/14 00:23:55;;;;;;;14.80;8.73;;;11.40;99.90;;;;;;5033145;28;20029;-81
2023/06/14 00:26:21;;;;;;;16.50;9.40;;;11.40;99.90;;;;;;5035451;28;20360;-86
2023/06/14 00:28:46;;;;;;;15.63;9.13;;;11.40;99.90;;;;;;5036125;28;20026;-84
2023/06/14 00:31:12;;;;;;;14.05;9.38;;;11.40;99.90;;;;;;5031989;28;20026;-82
2023/06/14 00:33:38;;;;;;;16.10;9.07;;;11.40;99.90;;;;;;5031854;28;20039;-84
2023/06/14 00:36:03;;;;;;;15.93;9.75;;;11.40;99.90;;;;;;5033099;28;20078;-81
2023/06/14 00:38:29;;;;;;;14.70;9.27;;;11.30;99.90;;;;;;5031632;28;20026;-81
2023/06/14 00:40:54;;;;;;;12.77;9.25;;;11.30;99.90;;;;;;5032918;28;20057;-82
2023/06/14 00:43:20;;;;;;;12.32;8.90;;;11.30;99.90;;;;;;5033941;28;20105;-83
2023/06/14 00:45:46;;;;;;;13.60;8.65;;;11.30;99.90;;;;;;5033005;28;20030;-83
2023/06/14 00:48:13;;;;;;;13.65;9.18;;;11.30;99.90;;;;;;5031642;28;20475;-81
2023/06/14 00:50:40;;;;;;;13.30;8.32;;;11.30;99.90;;;;;;5032709;28;20117;-84
2023/06/14 00:53:06;;;;;;;16.20;9.18;;;11.30;99.90;;;;;;5032768;28;20390;-83
2023/06/14 00:55:32;;;;;;;13.80;8.90;;;11.40;99.90;;;;;;5032686;28;20044;-81
2023/06/14 00:57:58;;;;;;;16.25;9.40;;;11.40;99.90;;;;;;5031391;28;20425;-81
2023/06/14 01:00:24;;;;;;;14.40;9.32;;;11.40;99.90;;;;;;5032098;28;20386;-82
2023/06/14 01:02:50;;;;;;;14.05;9.88;;;11.40;99.90;;;;;;5032644;28;20033;-81
2023/06/14 01:05:16;;;;;;;15.05;9.07;;;11.40;99.90;;;;;;5032638;28;20427;-81
2023/06/14 01:08:06;;;;;;;15.20;9.27;;;11.40;99.90;;;;;;5031733;28;20071;-84
2023/06/14 01:10:51;;;;;;;13.27;8.55;;;11.40;99.90;;;;;;5031397;28;20025;-83
2023/06/14 01:13:38;;;;;;;15.00;8.63;;;11.50;99.90;;;;;;5032366;28;20028;-83
2023/06/14 01:16:06;;;;;;;14.40;8.88;;;11.50;99.90;;;;;;5031085;28;20033;-84
2023/06/14 01:18:32;;;;;;;14.05;9.13;;;11.50;99.90;;;;;;5032966;28;20017;-81
2023/06/14 01:20:58;;;;;;;14.63;8.25;;;11.50;99.90;;;;;;5031354;28;20037;-82
2023/06/14 01:23:25;;;;;;;15.00;9.50;;;11.50;99.90;;;;;;5031094;28;20523;-81
2023/06/14 01:25:52;;;;;;;12.05;8.43;;;11.50;99.90;;;;;;5031143;28;20017;-84
2023/06/14 01:28:20;;;;;;;14.13;8.98;;;11.50;99.90;;;;;;5030948;28;20029;-84
2023/06/14 01:30:54;;;;;;;13.27;9.57;;;11.50;99.90;;;;;;5030901;28;20109;-80
2023/06/14 01:33:27;;;;;;;13.02;9.10;;;11.50;99.90;;;;;;5031360;28;20021;-80
2023/06/14 01:35:54;;;;;;;14.07;9.60;;;11.50;99.90;;;;;;5032294;28;20078;-81
2023/06/14 01:38:23;;;;;;;12.93;9.38;;;11.50;99.90;;;;;;5032058;28;20029;-83
2023/06/14 01:40:51;;;;;;;11.02;7.95;;;11.50;99.90;;;;;;5031975;28;20391;-81
2023/06/14 01:43:17;;;;;;;12.45;8.45;;;11.50;99.90;;;;;;5032092;28;20112;-84
2023/06/14 01:45:45;;;;;;;11.93;8.55;;;11.50;99.90;;;;;;5032010;28;20447;-82
2023/06/14 01:48:12;;;;;;;11.63;6.95;;;11.60;99.90;;;;;;5031889;28;20018;-83
2023/06/14 01:50:37;;;;;;;10.32;7.97;;;11.60;99.90;;;;;;5030360;28;20053;-83
2023/06/14 01:53:06;;;;;;;9.25;6.57;;;11.60;99.90;;;;;;5032797;28;20089;-84
2023/06/14 01:55:37;;;;;;;9.80;7.30;;;11.60;99.90;;;;;;5010683;28;20041;-84
2023/06/14 01:58:05;;;;;;;11.27;6.45;;;11.60;99.90;;;;;;5010964;28;20428;-82
2023/06/14 02:00:31;;;;;;;7.45;5.95;;;11.60;99.90;;;;;;5011954;28;20022;-84
2023/06/14 02:02:56;;;;;;;7.95;6.13;;;11.50;99.90;;;;;;5009929;28;20394;-84
2023/06/14 02:05:22;;;;;;;7.25;4.97;;;11.60;99.90;;;;;;5011993;28;20014;-83
2023/06/14 02:07:48;;;;;;;8.85;7.38;;;11.60;99.90;;;;;;5011796;28;20051;-82
2023/06/14 02:10:15;;;;;;;9.93;5.55;;;11.60;99.90;;;;;;5010509;28;20057;-84
2023/06/14 02:12:41;;;;;;;6.47;4.82;;;11.60;99.90;;;;;;5010658;28;20079;-83
2023/06/14 02:15:07;;;;;;;10.55;5.93;;;11.60;99.90;;;;;;5010697;28;20121;-82
2023/06/14 02:17:33;;;;;;;7.25;5.00;;;11.60;99.90;;;;;;5011928;28;20026;-83
2023/06/14 02:19:59;;;;;;;6.38;4.80;;;11.60;99.90;;;;;;5011880;28;20029;-84
2023/06/14 02:22:25;;;;;;;6.70;4.93;;;11.60;99.90;;;;;;5010471;28;20365;-81
2023/06/14 02:24:50;;;;;;;8.77;5.55;;;11.60;99.90;;;;;;5010316;28;20025;-81
2023/06/14 02:27:16;;;;;;;6.22;5.57;;;11.60;99.90;;;;;;5010508;28;20017;-83
2023/06/14 02:29:42;;;;;;;8.82;5.30;;;11.50;99.90;;;;;;5011312;28;20014;-81
2023/06/14 02:32:08;;;;;;;9.00;6.03;;;11.50;99.90;;;;;;5011872;28;20093;-83
2023/06/14 02:34:34;;;;;;;8.52;6.07;;;11.50;99.90;;;;;;5077412;27;20035;-81
2023/06/14 02:37:02;;;;;;;7.95;6.50;;;11.50;99.90;;;;;;5135160;27;20023;-84
2023/06/14 02:39:28;;;;;;;9.57;6.18;;;11.60;99.90;;;;;;5135241;27;20023;-84
2023/06/14 02:41:54;;;;;;;11.68;7.40;;;11.40;99.90;;;;;;5133707;27;20441;-84
2023/06/14 02:44:23;;;;;;;10.02;7.63;;;11.40;99.90;;;;;;5133671;27;20015;-81
2023/06/14 02:46:49;;;;;;;7.88;6.03;;;11.40;99.90;;;;;;5134714;27;20071;-81
2023/06/14 02:49:14;;;;;;;8.73;6.13;;;11.40;99.90;;;;;;5133512;27;20023;-81
2023/06/14 02:51:40;;;;;;;11.02;5.78;;;11.40;99.90;;;;;;5133684;27;20047;-81
2023/06/14 02:54:06;;;;;;;10.00;6.00;;;11.40;99.90;;;;;;5134770;27;20133;-84
2023/06/14 02:56:31;;;;;;;8.73;7.03;;;11.40;99.90;;;;;;5134901;27;20019;-83
2023/06/14 02:58:58;;;;;;;7.05;5.72;;;11.40;99.90;;;;;;5133585;27;20076;-82
2023/06/14 03:01:33;;;;;;;9.30;6.53;;;11.50;99.90;;;;;;5133806;27;20117;-81
2023/06/14 03:03:59;;;;;;;9.07;6.30;;;11.50;99.90;;;;;;5134437;27;20027;-83
2023/06/14 03:06:24;;;;;;;7.93;5.88;;;11.50;99.90;;;;;;5133552;27;20026;-83
2023/06/14 03:08:51;;;;;;;7.93;5.60;;;11.50;99.90;;;;;;5133378;27;20391;-81
2023/06/14 03:11:20;;;;;;;7.20;6.03;;;11.50;99.90;;;;;;5134514;27;20361;-84
2023/06/14 03:13:46;;;;;;;7.63;6.53;;;11.50;99.90;;;;;;5132652;27;20517;-82
2023/06/14 03:16:12;;;;;;;7.10;6.40;;;11.50;99.90;;;;;;5132910;27;20015;-81
2023/06/14 03:18:38;;;;;;;10.05;8.02;;;11.50;99.90;;;;;;5133167;27;20026;-84
2023/06/14 03:21:04;;;;;;;8.52;6.90;;;11.40;99.90;;;;;;5133603;27;20023;-81
2023/06/14 03:23:31;;;;;;;12.80;8.45;;;11.40;99.90;;;;;;5133335;27;20023;-84
2023/06/14 03:25:56;;;;;;;10.02;7.93;;;11.30;99.90;;;;;;5133141;28;20035;-84
2023/06/14 03:28:22;;;;;;;11.93;8.45;;;11.40;99.90;;;;;;5133141;27;20027;-80
2023/06/14 03:30:48;;;;;;;13.35;9.70;;;11.40;99.90;;;;;;5134282;28;20106;-81
2023/06/14 03:33:13;;;;;;;12.98;9.45;;;11.40;99.90;;;;;;5133117;27;20028;-83
2023/06/14 03:35:39;;;;;;;16.80;11.80;;;11.50;99.90;;;;;;5133038;28;20058;-82
2023/06/14 03:38:05;;;;;;;16.70;11.05;;;11.40;99.90;;;;;;5132870;27;20015;-81
2023/06/14 03:40:31;;;;;;;15.35;11.27;;;11.40;99.90;;;;;;5133935;28;20023;-82
2023/06/14 03:42:56;;;;;;;14.82;10.30;;;11.40;99.90;;;;;;5133053;27;20019;-84
2023/06/14 03:45:22;;;;;;;16.33;10.73;;;11.40;99.90;;;;;;5134419;28;20019;-81
2023/06/14 03:47:48;;;;;;;13.65;10.85;;;11.50;99.90;;;;;;5134188;27;20030;-81
2023/06/14 03:50:13;;;;;;;15.32;11.88;;;11.50;99.90;;;;;;5132725;28;20043;-81
2023/06/14 03:52:40;;;;;;;17.98;13.18;;;11.60;99.90;;;;;;5132858;27;20030;-81
2023/06/14 03:55:06;;;;;;;19.15;11.60;;;11.60;99.90;;;;;;5132973;28;20096;-82
2023/06/14 03:57:31;;;;;;;17.20;12.43;;;11.60;99.90;;;;;;5137701;27;20031;-81
2023/06/14 03:59:57;;;;;;;16.90;11.55;;;11.60;99.90;;;;;;5134592;28;20087;-83
2023/06/14 04:02:23;;;;;;;17.38;12.90;;;11.60;99.90;;;;;;5134276;28;20107;-82
2023/06/14 04:04:49;;;;;;;17.02;12.15;;;11.60;99.90;;;;;;5132640;27;20030;-83
2023/06/14 04:07:19;;;;;;;17.42;13.38;;;11.70;99.90;;;;;;5132795;28;20034;-81
2023/06/14 04:09:45;;;;;;;17.13;12.90;;;11.70;99.90;;;;;;5132577;27;20046;-82
2023/06/14 04:12:13;;;;;;;19.60;13.23;;;11.70;99.90;;;;;;5132605;28;20390;-83
2023/06/14 04:14:40;;;;;;;20.45;14.02;;;11.60;99.90;;;;;;5132552;27;20035;-83
2023/06/14 04:17:06;;;;;;;18.42;13.38;;;11.60;99.90;;;;;;5133717;28;20038;-81
2023/06/14 04:19:31;;;;;;;17.95;12.45;;;11.60;99.90;;;;;;5132864;27;20453;-83
2023/06/14 04:22:02;;;;;;;16.08;12.02;;;11.60;99.90;;;;;;5132577;28;20095;-83
2023/06/14 04:24:31;;;;;;;15.00;11.25;;;11.50;99.90;;;;;;5132853;27;20019;-82
2023/06/14 04:26:58;;;;;;;16.27;10.88;;;11.60;99.90;;;;;;5135228;27;20042;-83
2023/06/14 04:29:26;;;;;;;15.73;11.45;;;11.60;99.90;;;;;;5136233;27;20027;-83
2023/06/14 04:31:53;;;;;;;16.90;11.85;;;11.60;99.90;;;;;;5136203;27;20019;-83
2023/06/14 04:34:19;;;;;;;13.40;10.15;;;11.60;99.90;;;;;;5137389;27;20039;-83
2023/06/14 04:36:52;;;;;;;10.68;7.95;;;11.70;99.90;;;;;;5137293;27;20060;-83
2023/06/14 04:39:19;;;;;;;11.30;7.82;;;11.70;99.90;;;;;;5108322;27;20018;-83
2023/06/14 04:41:45;;;;;;;8.43;7.03;;;11.70;99.90;;;;;;5013795;28;20038;-83
2023/06/14 04:44:12;;;;;;;9.90;6.88;;;11.60;99.90;;;;;;5021674;28;20148;-84
2023/06/14 04:46:45;;;;;;;8.90;6.35;;;11.60;99.90;;;;;;5023615;28;20014;-84
2023/06/14 04:49:15;;;;;;;9.15;6.53;;;11.60;99.90;;;;;;5011893;28;20395;-81
2023/06/14 04:51:44;;;;;;;10.35;6.75;;;11.70;99.90;;;;;;5013092;28;20050;-83
2023/06/14 04:54:13;;;;;;;10.05;7.72;;;11.60;99.90;;;;;;5046342;28;20098;-84
2023/06/14 04:56:39;;;;;;;9.77;6.65;;;11.60;99.90;;;;;;5031362;28;20048;-83
2023/06/14 04:59:04;;;;;;;8.32;5.85;;;11.60;99.90;;;;;;5032040;28;20462;-83
2023/06/14 05:01:31;;;;;;;5.75;4.45;;;11.60;99.90;;;;;;5023447;28;20075;-81
2023/06/14 05:03:57;;;;;;;4.13;3.72;;;11.60;99.90;;;;;;5011405;28;20056;-83
2023/06/14 05:06:23;;;;;;;5.75;5.03;;;11.60;99.90;;;;;;5012754;28;20022;-84
2023/06/14 05:08:49;;;;;;;4.15;3.60;;;11.60;99.90;;;;;;5012929;28;20168;-84
2023/06/14 05:11:16;;;;;;;3.55;3.25;;;11.50;99.90;;;;;;5011341;28;20025;-81
2023/06/14 05:13:43;;;;;;;3.25;2.83;;;11.60;99.90;;;;;;5014934;28;20475;-81
2023/06/14 05:16:09;;;;;;;2.95;2.75;;;11.50;99.90;;;;;;5018180;28;20028;-82
2023/06/14 05:18:35;;;;;;;2.90;2.55;;;11.50;99.90;;;;;;5019379;28;20037;-84
2023/06/14 05:21:01;;;;;;;2.42;2.20;;;11.50;99.90;;;;;;5011976;28;20022;-84
2023/06/14 05:23:27;;;;;;;3.08;2.78;;;11.40;99.90;;;;;;5012816;28;20459;-84
2023/06/14 05:25:53;;;;;;;3.17;2.88;;;11.50;99.90;;;;;;5018322;28;20060;-84
2023/06/14 05:28:18;;;;;;;2.95;2.75;;;11.50;99.90;;;;;;5029156;28;20419;-84
2023/06/14 05:30:44;;;;;;;2.58;2.35;;;11.40;99.90;;;;;;5029512;28;20030;-81
2023/06/14 05:33:09;;;;;;;2.30;2.10;;;11.40;99.90;;;;;;5019140;28;20344;-83
2023/06/14 05:35:35;;;;;;;2.30;2.10;;;11.40;99.90;;;;;;5015280;28;20034;-83
2023/06/14 05:38:01;;;;;;;3.45;2.50;;;11.40;99.90;;;;;;5030591;28;20025;-80
2023/06/14 05:40:27;;;;;;;2.58;2.38;;;11.40;99.90;;;;;;5030419;28;20436;-81
2023/06/14 05:42:52;;;;;;;2.60;2.40;;;11.50;99.90;;;;;;5029920;28;20387;-80
2023/06/14 05:45:19;;;;;;;3.92;3.53;;;11.60;99.90;;;;;;5030570;28;20022;-80
2023/06/14 05:47:45;;;;;;;3.95;3.42;;;11.50;99.90;;;;;;5030032;28;20033;-82
2023/06/14 05:50:10;;;;;;;3.42;3.13;;;11.50;99.90;;;;;;5029726;28;20046;-82
2023/06/14 05:52:36;;;;;;;3.63;3.33;;;11.50;99.90;;;;;;5027459;28;20032;-81
2023/06/14 05:55:03;;;;;;;4.13;3.72;;;11.60;99.90;;;;;;5026176;27;20034;-81
2023/06/14 05:57:29;;;;;;;3.55;3.25;;;11.70;99.90;;;;;;5004017;28;20114;-80
2023/06/14 05:59:55;;;;;;;3.25;2.95;;;11.70;99.90;;;;;;5017942;28;20526;-80
2023/06/14 06:02:20;;;;;;;3.70;3.40;;;11.60;99.90;;;;;;5029651;28;20494;-80
2023/06/14 06:04:46;;;;;;;3.83;3.50;;;11.70;99.90;;;;;;5031729;28;20040;-83
2023/06/14 06:07:12;;;;;;;4.47;3.35;;;11.70;99.90;;;;;;5061248;27;20377;-82
2023/06/14 06:09:37;;;;;;;5.28;4.00;;;11.60;99.90;;;;;;5133348;27;20023;-82
2023/06/14 06:12:06;;;;;;;4.10;3.70;;;11.60;99.90;;;;;;5134568;27;20054;-82
2023/06/14 06:14:32;;;;;;;5.40;4.30;;;11.70;99.90;;;;;;5133082;27;20537;-80
2023/06/14 06:16:58;;;;;;;5.30;4.80;;;11.80;99.90;;;;;;5135296;27;20015;-80
2023/06/14 06:19:24;;;;;;;5.18;4.68;;;11.80;99.90;;;;;;5135571;27;20030;-81
2023/06/14 06:21:50;;;;;;;6.63;5.35;;;11.80;99.90;;;;;;5134246;27;20015;-82
2023/06/14 06:24:15;;;;;;;6.20;5.22;;;11.90;99.90;;;;;;5134081;27;20113;-80
2023/06/14 06:26:41;;;;;;;5.18;4.63;;;11.90;99.90;;;;;;5108139;27;20151;-83
2023/06/14 06:29:07;;;;;;;5.38;4.88;;;12.00;99.90;;;;;;5029892;28;20374;-81
2023/06/14 06:31:32;;;;;;;5.30;4.43;;;12.00;99.90;;;;;;5050024;27;20043;-83
2023/06/14 06:33:58;;;;;;;6.30;4.90;;;12.00;99.90;;;;;;5051037;28;20175;-81
2023/06/14 06:36:24;;;;;;;5.43;4.88;;;11.90;99.90;;;;;;5049852;28;20439;-81
2023/06/14 06:38:50;;;;;;;7.47;4.82;;;12.00;99.90;;;;;;5011048;27;20026;-81
2023/06/14 06:41:16;;;;;;;5.45;4.85;;;11.90;99.90;;;;;;5037774;28;20495;-83
2023/06/14 06:43:41;;;;;;;5.90;5.30;;;11.80;99.90;;;;;;5049932;27;20047;-81
2023/06/14 06:46:07;;;;;;;5.55;5.00;;;11.80;99.90;;;;;;5049668;28;20029;-81
2023/06/14 06:48:33;;;;;;;6.88;4.95;;;11.80;99.90;;;;;;5048023;27;20065;-83
2023/06/14 06:50:58;;;;;;;11.35;6.13;;;11.90;99.90;;;;;;5023689;28;20053;-81
2023/06/14 06:53:24;;;;;;;7.53;6.53;;;11.90;99.90;;;;;;5020570;27;20045;-83
2023/06/14 06:55:50;;;;;;;8.23;6.80;;;11.90;99.90;;;;;;5016115;28;20082;-80
2023/06/14 06:58:15;;;;;;;8.40;7.50;;;11.90;99.90;;;;;;5031092;28;20355;-81
2023/06/14 07:00:41;;;;;;;9.43;7.63;;;11.90;99.90;;;;;;5029724;28;20058;-83
2023/06/14 07:03:07;;;;;;;9.18;7.57;;;12.00;99.90;;;;;;5029428;28;20046;-83
2023/06/14 07:05:32;;;;;;;10.00;7.68;;;12.10;99.90;;;;;;5029432;28;20026;-83
2023/06/14 07:07:58;;;;;;;11.05;7.40;;;12.30;99.90;;;;;;5030452;28;20120;-82
2023/06/14 07:10:24;;;;;;;8.52;7.00;;;12.40;99.90;;;;;;5029292;28;20027;-82
2023/06/14 07:12:53;;;;;;;9.40;7.40;;;12.60;99.90;;;;;;5031925;28;20066;-81
2023/06/14 07:15:18;;;;;;;8.52;6.60;;;12.70;99.90;;;;;;5029297;28;20112;-83
2023/06/14 07:17:44;;;;;;;7.55;5.70;;;12.80;99.90;;;;;;5029146;28;20057;-83
2023/06/14 07:20:13;;;;;;;7.70;6.65;;;12.80;99.90;;;;;;5030693;28;20021;-84
2023/06/14 07:22:43;;;;;;;8.38;6.10;;;12.70;99.90;;;;;;5029134;28;20078;-81
2023/06/14 07:25:13;;;;;;;6.68;5.80;;;12.50;99.90;;;;;;5030208;28;20064;-81
2023/06/14 07:27:40;;;;;;;6.95;5.90;;;12.50;99.90;;;;;;5029689;28;20033;-83
2023/06/14 07:30:07;;;;;;;6.03;5.38;;;12.50;99.90;;;;;;5029150;28;20505;-84
2023/06/14 07:32:32;;;;;;;8.13;5.25;;;12.40;99.90;;;;;;5028884;28;20077;-81
2023/06/14 07:34:58;;;;;;;5.82;5.28;;;12.40;99.90;;;;;;5032216;28;20042;-81
2023/06/14 07:37:24;;;;;;;4.85;4.43;;;12.40;99.90;;;;;;5029081;28;20128;-83
2023/06/14 07:39:49;;;;;;;11.73;5.55;;;12.50;99.90;;;;;;5029050;28;20022;-82
2023/06/14 07:42:15;;;;;;;11.07;5.22;;;12.50;99.90;;;;;;5029246;28;20051;-81
2023/06/14 07:44:41;;;;;;;13.85;5.75;;;12.60;99.90;;;;;;5028841;28;20026;-81
2023/06/14 07:47:06;;;;;;;8.18;5.03;;;12.60;99.90;;;;;;5028852;28;20028;-81
2023/06/14 07:49:32;;;;;;;17.83;6.60;;;12.70;99.90;;;;;;5030291;28;20037;-81
2023/06/14 07:51:58;;;;;;;6.20;4.97;;;12.60;99.90;;;;;;5032351;28;20060;-81
2023/06/14 07:54:26;;;;;;;5.50;5.00;;;12.70;99.90;;;;;;5030212;28;20545;-84
2023/06/14 07:56:52;;;;;;;6.60;5.95;;;12.70;99.90;;;;;;5028907;28;20382;-83
2023/06/14 07:59:18;;;;;;;12.73;5.95;;;12.70;99.90;;;;;;5028760;28;20390;-81
2023/06/14 08:01:46;;;;;;;10.52;6.35;;;12.70;99.90;;;;;;5030814;28;20176;-81
2023/06/14 08:04:13;;;;;;;6.80;5.25;;;12.70;99.90;;;;;;5031963;28;20576;-82
2023/06/14 08:06:39;;;;;;;12.30;6.82;;;12.80;99.90;;;;;;5039057;28;20039;-81
2023/06/14 08:09:05;;;;;;;9.07;6.47;;;12.80;99.90;;;;;;5033946;28;20025;-82
2023/06/14 08:11:31;;;;;;;13.05;5.82;;;13.00;99.90;;;;;;5031998;28;20018;-81
2023/06/14 08:13:56;;;;;;;6.63;5.50;;;13.00;99.90;;;;;;5033073;28;20102;-82
2023/06/14 08:16:22;;;;;;;6.00;5.40;;;13.00;99.90;;;;;;5031967;28;20026;-81
2023/06/14 08:18:48;;;;;;;7.05;4.85;;;13.10;99.90;;;;;;5031994;28;20028;-83
2023/06/14 08:21:14;;;;;;;7.45;5.32;;;13.00;99.90;;;;;;5032067;28;20428;-81
2023/06/14 08:23:42;;;;;;;14.30;5.25;;;13.00;99.90;;;;;;5031734;28;20077;-81
2023/06/14 08:26:08;;;;;;;10.38;4.80;;;13.00;99.90;;;;;;5034694;28;20100;-83
2023/06/14 08:28:34;;;;;;;4.22;3.83;;;13.10;99.90;;;;;;5032289;28;20498;-82
2023/06/14 08:31:00;;;;;;;4.72;4.20;;;12.90;99.90;;;;;;5031919;28;20026;-81
2023/06/14 08:33:25;;;;;;;4.28;3.88;;;12.90;99.90;;;;;;5031717;28;20497;-82
2023/06/14 08:35:51;;;;;;;16.25;5.15;;;12.90;99.90;;;;;;5031656;28;20026;-82
2023/06/14 08:38:16;;;;;;;13.57;4.32;;;12.90;99.90;;;;;;5031616;28;20021;-81
2023/06/14 08:40:42;;;;;;;6.22;5.13;;;13.00;99.90;;;;;;5031865;28;20014;-81
2023/06/14 08:43:08;;;;;;;7.75;5.03;;;13.00;99.90;;;;;;5038487;28;20052;-81
2023/06/14 08:45:34;;;;;;;9.82;5.05;;;13.00;99.90;;;;;;5046873;28;20469;-81
2023/06/14 08:47:59;;;;;;;5.28;4.22;;;13.00;99.90;;;;;;5031838;28;20100;-82
2023/06/14 08:50:26;;;;;;;5.25;4.72;;;13.00;99.90;;;;;;5031335;28;20060;-82
2023/06/14 08:52:57;;;;;;;6.05;5.47;;;12.90;99.90;;;;;;5031640;28;20030;-81
2023/06/14 08:55:26;;;;;;;5.43;4.93;;;12.80;99.90;;;;;;5033029;28;20033;-82
2023/06/14 08:57:54;;;;;;;16.52;6.63;;;12.60;99.90;;;;;;5031363;28;20524;-81
2023/06/14 09:00:21;;;;;;;7.88;5.18;;;12.60;99.90;;;;;;5032536;28;20026;-81
2023/06/14 09:02:47;;;;;;;7.85;6.53;;;12.70;99.90;;;;;;5032515;28;20022;-83
2023/06/14 09:05:13;;;;;;;9.32;8.43;;;12.60;99.90;;;;;;5035594;28;20025;-82
2023/06/14 09:07:43;;;;;;;17.25;6.70;;;12.60;99.90;;;;;;5031206;28;20531;-83
2023/06/14 09:10:15;;;;;;;12.95;8.55;;;12.60;99.90;;;;;;5032796;28;20395;-84
2023/06/14 09:12:42;;;;;;;18.13;6.90;;;12.60;99.90;;;;;;5032563;28;20034;-83
2023/06/14 09:15:08;;;;;;;10.45;6.95;;;12.60;99.90;;;;;;5031041;28;20037;-83
2023/06/14 09:17:38;;;;;;;8.18;6.25;;;12.60;99.90;;;;;;5030976;28;20030;-82
2023/06/14 09:20:17;;;;;;;7.72;5.90;;;12.60;99.90;;;;;;5030884;28;20021;-84
2023/06/14 09:22:43;;;;;;;7.57;6.18;;;12.70;99.90;;;;;;5032722;28;20110;-82
2023/06/14 09:25:09;;;;;;;8.00;6.07;;;12.90;99.90;;;;;;5032432;28;20140;-83
2023/06/14 09:27:35;;;;;;;6.50;5.65;;;12.90;99.90;;;;;;5030935;28;20017;-83
2023/06/14 09:30:05;;;;;;;7.55;6.18;;;12.90;99.90;;;;;;5030763;28;20048;-84
2023/06/14 09:32:31;;;;;;;17.92;11.73;;;12.90;99.90;;;;;;5030845;28;20064;-84
2023/06/14 09:34:57;;;;;;;10.68;8.32;;;13.00;99.90;;;;;;5032065;28;20034;-83
2023/06/14 09:37:30;;;;;;;6.75;5.75;;;13.00;99.90;;;;;;5031918;28;20025;-84
2023/06/14 09:39:56;;;;;;;;;;;13.10;99.90;;;;;;5031294;28;20486;-83
2023/06/14 09:42:23;;;;;;;11.90;6.13;;;13.10;99.90;;;;;;5031397;28;19954;-84
2023/06/14 09:44:49;;;;;;;5.47;5.05;;;13.10;99.90;;;;;;5031717;28;20025;-84
2023/06/14 09:47:18;;;;;;;6.75;6.15;;;13.10;99.90;;;;;;5032230;28;20036;-84
2023/06/14 09:49:44;;;;;;;7.85;7.00;;;13.00;99.90;;;;;;5031395;28;20030;-84
2023/06/14 09:52:14;;;;;;;13.25;7.30;;;13.10;99.90;;;;;;5011549;28;20041;-83
2023/06/14 09:54:42;;;;;;;16.05;8.93;;;13.20;99.90;;;;;;5027280;28;20069;-83
2023/06/14 09:57:11;;;;;;;11.43;7.70;;;13.10;99.90;;;;;;5026807;28;20061;-83
2023/06/14 09:59:45;;;;;;;8.82;7.57;;;13.10;99.90;;;;;;5026666;28;20025;-83
2023/06/14 10:02:29;;;;;;;14.85;7.78;;;13.10;99.90;;;;;;5015380;28;20029;-82
2023/06/14 10:05:06;;;;;;;7.68;6.50;;;13.10;99.90;;;;;;5032067;28;20022;-82
2023/06/14 10:07:38;;;;;;;8.25;6.70;;;13.10;99.90;;;;;;5009938;28;20023;-83
2023/06/14 10:10:04;;;;;;;8.83;7.93;;;13.10;99.90;;;;;;5018729;28;20506;-83
2023/06/14 10:12:31;;;;;;;8.85;7.70;;;13.00;99.90;;;;;;5014625;28;20116;-84
2023/06/14 10:14:57;;;;;;;9.65;8.32;;;12.90;99.90;;;;;;5018129;28;20042;-83
2023/06/14 10:17:37;;;;;;;13.88;10.77;;;13.00;99.90;;;;;;5024017;28;20060;-83
2023/06/14 10:20:19;;;;;;;9.65;8.65;;;13.00;99.90;;;;;;5018843;28;20034;-83
2023/06/14 10:22:53;;;;;;;8.63;7.72;;;13.10;99.90;;;;;;5025716;28;20537;-83
2023/06/14 10:25:29;;;;;;;8.45;7.53;;;13.00;99.90;;;;;;5019667;27;20113;-84
2023/06/14 10:28:13;;;;;;;9.52;7.75;;;13.10;99.90;;;;;;5017967;28;20356;-84
2023/06/14 10:30:39;;;;;;;12.38;9.75;;;13.10;99.90;;;;;;5019072;28;20034;-84
2023/06/14 10:33:08;;;;;;;13.07;11.73;;;13.00;99.90;;;;;;5012009;28;20378;-84
2023/06/14 10:35:34;;;;;;;12.13;9.75;;;12.90;99.90;;;;;;5010695;28;20041;-84
2023/06/14 10:38:07;;;;;;;10.57;8.40;;;13.00;99.90;;;;;;5009255;28;20041;-84
2023/06/14 10:40:34;;;;;;;9.52;8.52;;;13.00;99.90;;;;;;5009437;28;20123;-84
2023/06/14 10:42:59;;;;;;;10.45;9.35;;;13.00;99.90;;;;;;5009827;28;20416;-84
2023/06/14 10:45:25;;;;;;;9.57;8.57;;;12.90;99.90;;;;;;5010737;28;20118;-84
2023/06/14 10:47:52;;;;;;;9.18;7.97;;;12.90;99.90;;;;;;5009748;28;20026;-84
2023/06/14 10:50:30;;;;;;;9.48;7.93;;;12.90;99.90;;;;;;5009226;28;20576;-84
2023/06/14 10:52:56;;;;;;;9.95;7.82;;;13.00;99.90;;;;;;5014586;28;20462;-84
2023/06/14 10:55:22;;;;;;;10.25;8.77;;;13.00;99.90;;;;;;5019126;28;20119;-85
2023/06/14 10:57:58;;;;;;;11.23;8.82;;;13.00;99.90;;;;;;5018906;28;20026;-84
2023/06/14 11:00:27;;;;;;;9.77;7.45;;;13.10;99.90;;;;;;5017831;28;20045;-83
2023/06/14 11:03:15;;;;;;;11.73;7.78;;;13.20;99.90;;;;;;5020370;28;20040;-84
2023/06/14 11:05:52;;;;;;;10.68;8.20;;;13.10;99.90;;;;;;5028898;28;20040;-84
2023/06/14 11:08:48;;;;;;;8.27;7.32;;;13.30;99.90;;;;;;5030104;28;20021;-84
2023/06/14 11:11:14;;;;;;;10.88;8.65;;;13.30;99.90;;;;;;5028311;28;20081;-84
2023/06/14 11:13:43;;;;;;;12.27;8.90;;;13.30;99.90;;;;;;5120140;27;20481;-84
2023/06/14 11:16:13;;;;;;;9.63;8.55;;;13.30;99.90;;;;;;5131766;27;20476;-83
2023/06/14 11:18:39;;;;;;;11.05;8.60;;;13.40;99.90;;;;;;5133759;27;20050;-84
2023/06/14 11:21:05;;;;;;;9.88;8.32;;;13.50;99.90;;;;;;5132007;27;20066;-84
2023/06/14 11:23:30;;;;;;;10.25;8.25;;;13.60;99.90;;;;;;5077816;27;20025;-83
2023/06/14 11:25:56;;;;;;;9.52;8.52;;;13.60;99.90;;;;;;5048936;28;20024;-83
2023/06/14 11:28:23;;;;;;;13.02;9.23;;;13.60;99.90;;;;;;5050904;28;20033;-83
2023/06/14 11:30:59;;;;;;;11.43;9.38;;;13.70;99.90;;;;;;5050564;28;20028;-84
2023/06/14 11:33:25;;;;;;;9.43;8.40;;;13.80;99.90;;;;;;5050247;28;20028;-84
2023/06/14 11:35:52;;;;;;;11.90;9.48;;;13.80;99.90;;;;;;5051035;28;20036;-83
2023/06/14 11:38:17;;;;;;;12.60;9.13;;;13.90;99.90;;;;;;5021051;28;20493;-83
2023/06/14 11:40:43;;;;;;;11.95;9.30;;;13.80;99.90;;;;;;5023967;28;20018;-82
2023/06/14 11:43:09;;;;;;;10.82;8.98;;;13.90;99.90;;;;;;5022396;28;20518;-82
2023/06/14 11:45:35;;;;;;;13.50;8.88;;;13.90;99.90;;;;;;5021107;28;20022;-82
2023/06/14 11:48:01;;;;;;;13.93;9.68;;;13.90;99.90;;;;;;5021171;28;20357;-84
2023/06/14 11:50:27;;;;;;;28.02;20.23;;;14.00;99.90;;;;;;5021015;28;20078;-84
2023/06/14 11:52:59;;;;;;;21.98;15.52;;;14.00;99.90;;;;;;5014497;28;20391;-82
2023/06/14 11:55:25;;;;;;;20.38;11.63;;;13.90;99.90;;;;;;5012416;28;20483;-82
2023/06/14 11:57:53;;;;;;;12.77;10.02;;;14.00;99.90;;;;;;5029236;28;20100;-82
2023/06/14 12:00:21;;;;;;;21.65;16.17;;;14.00;99.90;;;;;;5033167;28;20026;-81
2023/06/14 12:02:59;;;;;;;13.40;9.48;;;14.00;99.90;;;;;;5031906;28;20412;-82
2023/06/14 12:05:32;;;;;;;11.10;8.93;;;14.00;99.90;;;;;;5032679;28;20041;-82
2023/06/14 12:08:03;;;;;;;11.90;9.40;;;14.00;99.90;;;;;;5032018;28;20102;-82
2023/06/14 12:10:43;;;;;;;11.18;8.80;;;14.10;99.90;;;;;;5031851;28;20017;-82
2023/06/14 12:13:10;;;;;;;14.50;7.40;;;14.20;99.90;;;;;;5031662;28;20502;-82
2023/06/14 12:15:36;;;;;;;9.45;8.27;;;14.20;99.90;;;;;;5032790;28;20116;-83
2023/06/14 12:18:10;;;;;;;10.40;8.32;;;14.20;99.90;;;;;;5031056;28;20508;-82
2023/06/14 12:20:39;;;;;;;9.00;6.95;;;14.20;99.90;;;;;;5032275;28;20402;-82
2023/06/14 12:23:08;;;;;;;9.35;7.63;;;14.30;99.90;;;;;;5031199;28;20397;-82
2023/06/14 12:25:38;;;;;;;9.57;7.10;;;14.40;99.90;;;;;;5031303;28;20026;-83
2023/06/14 12:28:14;;;;;;;13.35;8.43;;;14.30;99.90;;;;;;5031855;28;20101;-82
2023/06/14 12:30:43;;;;;;;8.18;7.13;;;14.40;99.90;;;;;;5031437;28;20021;-85
2023/06/14 12:33:08;;;;;;;9.05;6.50;;;14.60;99.90;;;;;;5030733;28;20033;-85
2023/06/14 12:35:34;;;;;;;18.42;8.27;;;14.60;99.90;;;;;;5031113;28;20045;-84
2023/06/14 12:38:03;;;;;;;10.20;7.25;;;14.70;99.90;;;;;;5031595;28;20021;-83
2023/06/14 12:40:29;;;;;;;10.95;7.50;;;14.60;99.90;;;;;;5031378;28;20026;-83
2023/06/14 12:42:55;;;;;;;9.10;7.05;;;14.70;99.90;;;;;;5031184;28;20029;-84